Etusivu
METAR-TAF:

METAR-TAF

Lentoasemat :

Jackson Municipal Airport

Jackson, Minnesota, Yhdysvallat

Leveyspiiri: 43-39N, Pituuspiiri: 094-59W, korkeus merenpinnasta: 441 m

Tämänhetkinen sää

Tämä raportti tehtiin 25 tuntia ja 19 minuuttia sitten, kello 17.35 UTC
Tuuli 13 kn luoteesta
Lämpötila -1°C
Kosteus 86%
Ilmanpaine 1020 hPa
Näkyvyys: 16.1 km
Hajanaisia pilviä 800 ft:n korkeudessa
Hajanaisia pilviä 1200 ft:n korkeudessa

METAR: KMJQ 241735Z AUTO 31013KT 10SM SCT008 SCT012 M01/M03 A3011 RMK AO2 PWINO

Aika: 12:54 (18:54 UTC)


TAF: puuttuu

Säähavainnot ja -ennusteet yli 4000 lentoasemalta (METAR- ja TAF-raportit).

Käytössä olevat sääasemat on merkitty karttaan keltaisilla ja punaisilla pisteillä.

Aseta hiiri pisteen päälle nähdäksesi sääaseman nimen.

Klikkaa sitten nähdäksesi säähavainnot ja -ennusteet.

Kartan vaihtaminen: klikkaa mustalla rastilla varustettuja vihreitä pisteitä, niin voit zoomata sisään; viivalla varustettua vihreää pistettä, niin voit zoomata ulos tai vihreitä nuolia, niin pääset viereisille kartoille.


METAR-TAF: